13/03/2019 - State Farm Arena, Atlanta, GA. Temporada Regular

Atlanta Hawks - 132

Memphis Grizzlies - 111

  • Árbitros: Tony Brown,Josh Tiven,Matt Myers
  • Asistencia: 15169 espectadores
  • Duración del partido: 2:10 horas
  • Número de empates durante el partido: 0
  • Cambios de líder: 0 veces

Mejores Valoración

Dobles-Dobles

Tabla estadísticas

Memphis Grizzlies - 111
Jugador Min TC T3 TL +/- rebO rebD reb asis fp rob per tap tr Val ptos
CJ Miles 32:37 11/16 8/12 3/4 6 0 3 3 0 0 0 2 0 0 28 33
Delon Wright 29:44 4/12 0/3 2/4 4 1 2 3 7 1 2 1 2 0 13 10
Mike Conley 25:55 6/14 1/6 7/8 -21 1 3 4 7 2 1 1 0 0 22 20
Ivan Rabb 24:39 0/5 0/2 4/4 -16 2 3 5 3 4 1 1 0 0 7 4
Joakim Noah 23:52 5/7 0/0 2/3 -4 1 7 8 5 2 1 0 1 0 24 12
Tyler Dorsey 20:18 3/7 2/4 0/0 -2 1 2 3 0 0 1 1 1 0 8 8
Jonas Valanciunas 19:31 3/8 0/0 2/2 -24 0 0 0 0 2 0 3 1 0 1 8
Avery Bradley 19:15 2/8 0/4 1/1 -27 1 0 1 1 2 0 2 0 0 -1 5
Justin Holiday 18:16 2/6 2/6 0/0 -21 1 2 3 0 2 1 1 1 0 6 6
Chandler Parsons 15:23 1/4 0/1 0/0 -7 1 1 2 3 1 1 0 0 0 5 2
Bruno Caboclo 10:30 1/2 1/2 0/0 7 0 3 3 2 1 0 2 0 0 5 3
Total / / / -105 118
Atlanta Hawks - 132
Jugador Min TC T3 TL +/- rebO rebD reb asis fp rob per tap tr Val ptos
Justin Anderson 6:16 2/5 0/2 0/0 -6 1 1 2 0 0 1 0 0 0 4 4
Tyler Zeller 3:39 0/0 0/0 0/0 -6 0 2 2 1 2 0 0 0 0 3 0
BJ Johnson 3:39 0/2 0/0 2/2 -6 0 0 0 0 0 0 0 0 0 0 2
Kevin Huerter 26:56 6/10 4/6 0/0 35 2 3 5 4 3 1 1 1 0 22 16
John Collins 25:22 11/17 1/2 4/5 28 5 7 12 1 1 1 1 2 0 35 27
Taurean Prince 25:08 6/11 3/6 0/0 21 0 3 3 3 3 1 1 0 0 16 15
Trae Young 24:49 8/12 3/5 3/3 25 0 3 3 8 1 1 0 0 0 30 22
Jaylen Adams 23:11 3/7 2/6 0/0 -4 1 2 3 5 3 0 3 0 0 9 8
Alex Len 22:55 8/13 2/5 2/4 1 3 5 8 4 3 0 0 2 0 27 20
DeAndre Bembry 22:52 1/3 0/1 0/0 0 0 4 4 4 1 2 3 1 0 8 2
Dewayne Dedmon 21:26 3/9 0/3 0/0 26 3 3 6 3 5 2 1 2 0 12 6
Kent Bazemore 17:25 0/6 0/5 0/0 -8 0 2 2 1 3 0 1 1 0 -3 0
Vince Carter 16:22 4/8 2/4 0/0 -1 0 1 1 1 1 0 0 0 0 8 10
Total / / / 105 171



temporada 201819

Calendario por equipos

Selecciona equipo NBA y tipo partidos

enfrentamientos equipos

Selecciona enfrentamiento equipos NBA